Time;durP1;ratioP1;P1;durP2;ratioP2;P2;SDS_P1;SDS_P2;PMS_P1;PMS_P2;Temp;Humidity;BMP_temperature;BMP_pressure;BME280_temperature;BME280_humidity;BME280_pressure;Samples;Min_cycle;Max_cycle;Signal;HPM_P1;HPM_P2
2023/06/30 00:01:57;;;;;;;9.40;3.67;;;;;;;;;;5047504;28;20498;-74
2023/06/30 00:04:27;;;;;;;7.43;3.40;;;;;;;;;;5051655;28;20091;-74
2023/06/30 00:06:56;;;;;;;11.23;3.53;;;14.20;99.90;;;;;;5065272;28;20410;-74
2023/06/30 00:09:22;;;;;;;9.98;3.58;;;14.00;99.90;;;;;;5064293;28;20040;-74
2023/06/30 00:11:53;;;;;;;8.73;4.25;;;14.10;99.90;;;;;;5051815;28;20052;-74
2023/06/30 00:14:20;;;;;;;8.63;3.40;;;13.90;99.90;;;;;;5026853;28;20478;-74
2023/06/30 00:16:48;;;;;;;7.03;3.80;;;13.90;99.90;;;;;;5054790;28;20055;-74
2023/06/30 00:19:14;;;;;;;10.77;3.40;;;;;;;;;;5053228;28;20487;-74
2023/06/30 00:21:41;;;;;;;8.63;3.38;;;13.80;99.90;;;;;;5058306;28;20070;-73
2023/06/30 00:24:10;;;;;;;6.88;3.20;;;14.00;99.90;;;;;;5046249;28;20121;-74
2023/06/30 00:26:37;;;;;;;8.43;3.08;;;;;;;;;;5064198;28;20049;-74
2023/06/30 00:29:03;;;;;;;10.18;3.47;;;;;;;;;;5041050;28;20514;-73
2023/06/30 00:31:29;;;;;;;8.45;2.83;;;;;;;;;;5051221;28;20037;-74
2023/06/30 00:33:55;;;;;;;8.00;3.38;;;;;;;;;;5051120;28;20049;-73
2023/06/30 00:36:21;;;;;;;7.95;3.08;;;13.70;99.90;;;;;;5069475;28;20628;-74
2023/06/30 00:38:47;;;;;;;11.20;4.90;;;;;;;;;;5048838;28;20048;-74
2023/06/30 00:41:13;;;;;;;9.48;3.25;;;13.50;99.90;;;;;;5015814;28;20406;-73
2023/06/30 00:43:39;;;;;;;8.73;2.80;;;;;;;;;;5038258;28;20048;-73
2023/06/30 00:46:05;;;;;;;7.63;3.10;;;;;;;;;;5068160;28;20040;-73
2023/06/30 00:48:32;;;;;;;9.32;3.33;;;;;;;;;;5052989;28;20119;-73
2023/06/30 00:50:58;;;;;;;9.07;2.72;;;;;;;;;;5065018;28;20355;-73
2023/06/30 00:53:25;;;;;;;6.97;2.97;;;;;;;;;;5060543;28;20079;-74
2023/06/30 00:55:51;;;;;;;5.95;2.53;;;;;;;;;;5053407;28;20044;-74
2023/06/30 00:58:17;;;;;;;7.65;2.95;;;13.30;99.90;;;;;;5057096;28;20634;-74
2023/06/30 01:00:43;;;;;;;6.93;2.75;;;;;;;;;;5048145;28;20041;-73
2023/06/30 01:03:28;;;;;;;5.97;3.10;;;13.30;99.90;;;;;;5052982;28;20131;-74
2023/06/30 01:06:23;;;;;;;12.73;3.42;;;13.00;99.90;;;;;;5050753;28;20089;-74
2023/06/30 01:08:56;;;;;;;9.03;2.80;;;;;;;;;;5049618;28;20653;-74
2023/06/30 01:11:21;;;;;;;7.80;2.80;;;13.10;99.90;;;;;;5062083;28;20290;-73
2023/06/30 01:13:48;;;;;;;9.32;3.13;;;13.30;99.90;;;;;;5067674;28;20052;-74
2023/06/30 01:16:16;;;;;;;9.27;2.97;;;13.10;99.90;;;;;;5043480;28;20048;-74
2023/06/30 01:18:44;;;;;;;9.70;3.40;;;13.10;99.90;;;;;;5050487;28;20498;-74
2023/06/30 01:21:15;;;;;;;8.32;2.83;;;13.10;99.90;;;;;;5050384;28;20502;-74
2023/06/30 01:23:58;;;;;;;12.10;3.40;;;13.00;99.90;;;;;;5067327;28;20577;-74
2023/06/30 01:26:25;;;;;;;7.72;2.38;;;;;;;;;;5055802;28;20053;-74
2023/06/30 01:28:51;;;;;;;7.82;2.90;;;;;;;;;;5050401;28;20078;-74
2023/06/30 01:31:19;;;;;;;7.30;2.47;;;13.30;99.90;;;;;;5046608;28;20040;-74
2023/06/30 01:33:45;;;;;;;7.05;2.28;;;;;;;;;;5044967;28;20040;-74
2023/06/30 01:36:11;;;;;;;7.07;2.30;;;;;;;;;;5061441;28;20051;-74
2023/06/30 01:38:37;;;;;;;4.65;2.35;;;13.10;99.90;;;;;;5050790;28;20478;-74
2023/06/30 01:41:06;;;;;;;5.55;2.20;;;;;;;;;;5049926;28;20052;-74
2023/06/30 01:43:33;;;;;;;7.43;2.45;;;;;;;;;;5048227;28;20040;-74
2023/06/30 01:45:59;;;;;;;12.00;3.80;;;;;;;;;;5067653;28;20079;-74
2023/06/30 01:48:28;;;;;;;10.27;2.85;;;;;;;;;;5049137;28;20041;-74
2023/06/30 01:50:55;;;;;;;10.02;3.08;;;;;;;;;;5059092;28;20044;-73
2023/06/30 01:53:20;;;;;;;5.68;2.65;;;12.60;99.90;;;;;;5052900;28;20604;-73
2023/06/30 01:55:49;;;;;;;7.32;2.72;;;12.70;99.90;;;;;;5067248;28;20044;-73
2023/06/30 01:58:17;;;;;;;7.35;2.88;;;12.80;99.90;;;;;;5043672;28;20040;-73
2023/06/30 02:00:43;;;;;;;12.20;3.05;;;;;;;;;;5017185;28;20052;-73
2023/06/30 02:03:09;;;;;;;9.23;2.85;;;;;;;;;;5049849;28;20052;-73
2023/06/30 02:05:35;;;;;;;8.63;2.65;;;;;;;;;;5049560;28;20654;-73
2023/06/30 02:08:01;;;;;;;7.68;2.72;;;;;;;;;;5046372;28;20049;-74
2023/06/30 02:10:27;;;;;;;5.95;2.97;;;;;;;;;;5046273;28;20047;-73
2023/06/30 02:12:52;;;;;;;9.77;3.03;;;12.70;99.90;;;;;;5041579;28;20049;-73
2023/06/30 02:15:18;;;;;;;9.85;3.38;;;;;;;;;;5040661;28;20079;-73
2023/06/30 02:17:44;;;;;;;8.98;2.75;;;;;;;;;;5043627;28;20087;-73
2023/06/30 02:20:12;;;;;;;5.85;2.58;;;;;;;;;;5042371;28;20795;-73
2023/06/30 02:22:38;;;;;;;9.15;2.85;;;12.60;99.90;;;;;;5042969;28;20076;-73
2023/06/30 02:25:04;;;;;;;7.70;2.58;;;;;;;;;;5044476;28;20075;-73
2023/06/30 02:27:30;;;;;;;6.07;3.10;;;;;;;;;;5044524;28;20646;-73
2023/06/30 02:29:57;;;;;;;10.55;2.90;;;;;;;;;;5041568;28;20045;-73
2023/06/30 02:32:23;;;;;;;5.72;2.40;;;12.50;99.90;;;;;;5044091;28;20059;-73
2023/06/30 02:34:49;;;;;;;7.32;3.35;;;;;;;;;;5044200;28;20483;-73
2023/06/30 02:37:15;;;;;;;8.68;3.85;;;;;;;;;;5015316;28;20048;-74
2023/06/30 02:39:41;;;;;;;8.20;2.90;;;;;;;;;;5041919;28;20468;-73
2023/06/30 02:42:07;;;;;;;6.32;3.15;;;;;;;;;;5041522;28;20045;-73
2023/06/30 02:44:33;;;;;;;5.97;2.55;;;12.60;99.90;;;;;;5044768;28;20126;-73
2023/06/30 02:46:58;;;;;;;6.90;3.03;;;12.60;99.90;;;;;;5045023;28;20124;-73
2023/06/30 02:49:24;;;;;;;7.30;3.90;;;;;;;;;;5044778;28;20437;-73
2023/06/30 02:51:50;;;;;;;8.15;2.90;;;;;;;;;;5044359;28;20474;-73
2023/06/30 02:54:16;;;;;;;7.65;3.03;;;;;;;;;;5039181;28;20085;-73
2023/06/30 02:56:42;;;;;;;9.30;2.80;;;;;;;;;;5061885;28;20072;-73
2023/06/30 02:59:08;;;;;;;5.72;3.72;;;12.60;99.90;;;;;;5025383;28;20396;-73
2023/06/30 03:01:34;;;;;;;5.78;2.95;;;;;;;;;;5044495;28;20079;-73
2023/06/30 03:04:00;;;;;;;9.38;2.65;;;;;;;;;;5045638;28;20603;-73
2023/06/30 03:06:26;;;;;;;9.18;3.35;;;;;;;;;;5040903;28;20490;-73
2023/06/30 03:08:52;;;;;;;8.15;2.90;;;;;;;;;;5023874;28;20506;-74
2023/06/30 03:11:18;;;;;;;5.45;2.63;;;12.30;99.90;;;;;;5046060;28;20465;-74
2023/06/30 03:13:44;;;;;;;5.10;2.85;;;12.40;99.90;;;;;;5066319;28;20049;-73
2023/06/30 03:16:12;;;;;;;8.15;2.90;;;;;;;;;;5048557;28;20456;-73
2023/06/30 03:18:38;;;;;;;9.93;3.30;;;;;;;;;;5043753;28;20664;-73
2023/06/30 03:21:03;;;;;;;6.35;3.13;;;12.40;99.90;;;;;;5042961;28;20052;-73
2023/06/30 03:23:29;;;;;;;8.88;3.20;;;;;;;;;;5047527;28;20127;-73
2023/06/30 03:25:55;;;;;;;6.72;2.95;;;12.30;99.90;;;;;;5059077;28;20091;-73
2023/06/30 03:28:21;;;;;;;4.05;2.65;;;;;;;;;;5045049;28;20438;-73
2023/06/30 03:30:46;;;;;;;5.38;2.28;;;12.20;99.90;;;;;;5065608;28;20374;-73
2023/06/30 03:33:12;;;;;;;6.47;2.40;;;;;;;;;;5052167;28;20098;-73
2023/06/30 03:35:38;;;;;;;9.15;2.30;;;;;;;;;;5054574;28;20056;-73
2023/06/30 03:38:04;;;;;;;6.28;2.53;;;12.00;99.90;;;;;;5046342;28;20533;-73
2023/06/30 03:40:30;;;;;;;5.45;1.92;;;;;;;;;;5065647;28;20056;-73
2023/06/30 03:42:56;;;;;;;5.00;2.30;;;;;;;;;;5047157;28;20539;-73
2023/06/30 03:45:22;;;;;;;3.72;2.13;;;;;;;;;;5050121;28;20399;-73
2023/06/30 03:47:48;;;;;;;7.10;2.40;;;;;;;;;;5049679;28;20045;-73
2023/06/30 03:50:14;;;;;;;4.10;2.40;;;;;;;;;;5040982;28;20545;-73
2023/06/30 03:52:40;;;;;;;4.65;2.03;;;;;;;;;;5050905;28;20041;-73
2023/06/30 03:55:06;;;;;;;2.55;1.55;;;;;;;;;;5049205;28;20045;-73
2023/06/30 03:57:32;;;;;;;3.22;2.00;;;;;;;;;;5053546;28;20101;-73
2023/06/30 03:59:58;;;;;;;3.88;2.10;;;;;;;;;;5016177;28;20045;-73
2023/06/30 04:02:24;;;;;;;3.63;1.88;;;;;;;;;;5063994;28;20064;-74
2023/06/30 04:04:50;;;;;;;6.00;2.20;;;11.90;99.90;;;;;;5059328;28;20075;-73
2023/06/30 04:07:16;;;;;;;6.68;3.17;;;;;;;;;;5068572;28;20048;-73
2023/06/30 04:09:42;;;;;;;8.50;3.15;;;;;;;;;;5057883;28;20494;-73
2023/06/30 04:12:08;;;;;;;5.93;2.92;;;;;;;;;;5049097;28;20061;-73
2023/06/30 04:14:34;;;;;;;5.68;2.97;;;;;;;;;;5067894;28;20481;-73
2023/06/30 04:17:00;;;;;;;5.90;3.10;;;;;;;;;;5022526;28;20055;-73
2023/06/30 04:19:26;;;;;;;5.30;2.92;;;;;;;;;;5041665;28;20480;-73
2023/06/30 04:21:52;;;;;;;5.43;2.90;;;;;;;;;;5053553;28;20044;-73
2023/06/30 04:24:19;;;;;;;7.38;2.88;;;12.00;99.90;;;;;;5069209;28;20075;-73
2023/06/30 04:26:44;;;;;;;8.13;3.58;;;11.90;99.90;;;;;;5047597;28;20060;-74
2023/06/30 04:29:10;;;;;;;6.38;2.40;;;;;;;;;;5057536;28;20044;-73
2023/06/30 04:31:36;;;;;;;9.32;3.42;;;;;;;;;;5061787;28;20048;-73
2023/06/30 04:34:02;;;;;;;7.25;2.72;;;;;;;;;;5053322;28;20117;-73
2023/06/30 04:36:28;;;;;;;7.03;3.05;;;;;;;;;;5060148;28;20091;-73
2023/06/30 04:38:55;;;;;;;13.80;3.80;;;;;;;;;;5047021;28;20186;-73
2023/06/30 04:41:21;;;;;;;12.95;3.63;;;;;;;;;;5048763;28;20540;-73
2023/06/30 04:43:47;;;;;;;7.30;3.25;;;;;;;;;;5055969;28;20135;-73
2023/06/30 04:46:13;;;;;;;14.60;4.15;;;;;;;;;;5052231;28;20652;-73
2023/06/30 04:48:39;;;;;;;5.32;3.35;;;;;;;;;;5050244;28;20041;-73
2023/06/30 04:51:05;;;;;;;9.15;4.03;;;12.80;99.90;;;;;;5048542;28;20450;-73
2023/06/30 04:53:31;;;;;;;10.13;4.00;;;12.90;99.90;;;;;;5048111;28;20041;-73
2023/06/30 04:55:57;;;;;;;7.93;3.67;;;;;;;;;;5068374;28;20048;-73
2023/06/30 04:58:23;;;;;;;10.98;3.45;;;;;;;;;;5026406;28;20448;-73
2023/06/30 05:00:49;;;;;;;7.90;3.70;;;;;;;;;;5047221;28;20041;-73
2023/06/30 05:03:15;;;;;;;7.75;3.38;;;13.40;99.90;;;;;;5052970;28;20529;-73
2023/06/30 05:05:40;;;;;;;13.05;3.65;;;13.60;99.90;;;;;;5049438;28;20045;-73
2023/06/30 05:08:06;;;;;;;10.27;4.07;;;;;;;;;;5050855;28;20048;-73
2023/06/30 05:10:33;;;;;;;8.25;4.03;;;;;;;;;;5050926;28;20048;-74
2023/06/30 05:12:59;;;;;;;8.35;3.88;;;;;;;;;;5055615;28;20088;-74
2023/06/30 05:15:25;;;;;;;8.20;3.22;;;;;;;;;;5058907;28;20114;-74
2023/06/30 05:17:50;;;;;;;9.85;3.40;;;14.30;99.90;;;;;;5054015;28;20044;-74
2023/06/30 05:20:16;;;;;;;8.63;2.58;;;;;;;;;;5050800;28;20044;-74
2023/06/30 05:22:42;;;;;;;8.88;2.80;;;15.20;99.90;;;;;;5053729;28;20044;-73
2023/06/30 05:25:08;;;;;;;8.52;2.92;;;;;;;;;;5066672;28;20051;-73
2023/06/30 05:27:34;;;;;;;9.68;3.00;;;;;;;;;;5048415;28;20040;-74
2023/06/30 05:30:00;;;;;;;9.20;2.65;;;;;;;;;;5053014;28;20040;-74
2023/06/30 05:32:25;;;;;;;6.38;2.50;;;17.20;99.90;;;;;;5048474;28;20045;-74
2023/06/30 05:34:51;;;;;;;5.65;1.90;;;;;;;;;;5065600;28;20040;-74
2023/06/30 05:37:17;;;;;;;8.85;2.78;;;;;;;;;;5054050;28;20186;-74
2023/06/30 05:39:43;;;;;;;11.20;2.67;;;;;;;;;;5046182;28;20134;-74
2023/06/30 05:42:09;;;;;;;3.42;1.50;;;;;;;;;;5062234;28;20684;-73
2023/06/30 05:44:35;;;;;;;7.45;1.75;;;;;;;;;;5048199;28;20040;-74
2023/06/30 05:47:01;;;;;;;6.25;2.13;;;18.90;99.90;;;;;;5054431;28;20457;-74
2023/06/30 05:49:27;;;;;;;7.78;1.80;;;19.50;99.90;;;;;;5049322;28;20044;-74
2023/06/30 05:51:53;;;;;;;5.93;1.77;;;19.90;99.90;;;;;;5048097;28;20044;-74
2023/06/30 05:54:18;;;;;;;9.38;1.63;;;20.30;99.90;;;;;;5049447;28;20040;-74
2023/06/30 05:56:44;;;;;;;5.38;1.67;;;20.50;99.90;;;;;;5066470;28;20048;-74
2023/06/30 05:59:10;;;;;;;4.03;1.00;;;20.70;99.90;;;;;;5044214;28;20410;-74
2023/06/30 06:01:39;;;;;;;7.15;1.90;;;21.10;99.90;;;;;;5064890;28;20051;-74
2023/06/30 06:04:11;;;;;;;5.63;1.25;;;21.50;99.90;;;;;;5052866;28;20041;-74
2023/06/30 06:06:37;;;;;;;3.35;1.02;;;22.00;99.90;;;;;;5061582;28;20041;-74
2023/06/30 06:09:03;;;;;;;7.95;1.63;;;22.80;99.90;;;;;;5055116;28;20036;-74
2023/06/30 06:11:28;;;;;;;5.60;0.80;;;23.10;99.90;;;;;;5058865;28;20414;-74
2023/06/30 06:13:54;;;;;;;6.85;1.00;;;23.30;99.90;;;;;;5052725;28;20044;-74
2023/06/30 06:16:20;;;;;;;4.93;0.85;;;23.30;99.90;;;;;;5067553;28;20044;-74
2023/06/30 06:18:47;;;;;;;5.07;0.55;;;23.30;99.90;;;;;;5046704;28;20052;-74
2023/06/30 06:21:13;;;;;;;5.53;1.15;;;23.10;99.90;;;;;;5067527;28;20040;-75
2023/06/30 06:23:38;;;;;;;3.63;0.80;;;24.10;99.90;;;;;;5042766;28;20241;-74
2023/06/30 06:26:04;;;;;;;5.63;0.68;;;23.10;99.90;;;;;;5047932;28;20028;-75
2023/06/30 06:28:29;;;;;;;6.07;1.02;;;23.70;99.90;;;;;;5047871;28;20041;-74
2023/06/30 06:30:55;;;;;;;3.85;0.60;;;23.20;99.90;;;;;;5048517;28;20035;-74
2023/06/30 06:33:21;;;;;;;4.72;0.80;;;23.00;99.90;;;;;;5051673;28;20554;-74
2023/06/30 06:35:50;;;;;;;4.55;1.02;;;24.20;99.90;;;;;;5027397;28;20043;-74
2023/06/30 06:38:17;;;;;;;6.43;0.90;;;22.80;99.90;;;;;;5058252;28;20048;-74
2023/06/30 06:40:44;;;;;;;3.63;0.77;;;23.80;99.90;;;;;;5048677;28;20048;-74
2023/06/30 06:43:09;;;;;;;8.45;1.45;;;21.80;99.90;;;;;;5049504;28;20048;-75
2023/06/30 06:45:35;;;;;;;3.25;0.95;;;21.00;99.90;;;;;;5043139;28;20105;-74
2023/06/30 06:48:25;;;;;;;9.88;0.70;;;22.20;99.90;;;;;;5063515;28;20136;-74
2023/06/30 06:50:52;;;;;;;10.00;1.77;;;20.70;99.90;;;;;;5047085;28;21234;-75
2023/06/30 06:53:27;;;;;;;4.47;0.95;;;20.20;99.90;;;;;;5016390;28;20044;-75
2023/06/30 06:55:53;;;;;;;4.05;0.65;;;19.70;99.90;;;;;;5052826;28;20044;-75
2023/06/30 06:58:19;;;;;;;6.85;1.02;;;19.80;99.90;;;;;;5060661;28;20530;-74
2023/06/30 07:00:48;;;;;;;5.65;0.73;;;19.80;99.90;;;;;;5048052;28;20581;-74
2023/06/30 07:03:14;;;;;;;5.78;0.90;;;19.60;99.90;;;;;;5041187;28;20090;-74
2023/06/30 07:05:40;;;;;;;7.47;1.13;;;19.60;99.90;;;;;;5043300;28;20414;-75
2023/06/30 07:08:06;;;;;;;7.63;0.85;;;19.40;99.90;;;;;;5046581;28;20123;-75
2023/06/30 07:10:32;;;;;;;5.10;0.80;;;19.30;99.90;;;;;;5044557;28;20044;-74
2023/06/30 07:12:58;;;;;;;4.97;1.05;;;19.10;99.90;;;;;;5033646;28;20897;-75
2023/06/30 07:15:25;;;;;;;7.10;0.95;;;19.10;99.90;;;;;;5051660;28;20466;-75
2023/06/30 07:17:51;;;;;;;8.00;0.98;;;;;;;;;;5047576;28;20540;-75
2023/06/30 07:20:17;;;;;;;4.57;0.63;;;;;;;;;;5052652;28;20125;-74
2023/06/30 07:22:42;;;;;;;5.90;0.90;;;18.80;99.90;;;;;;5066031;28;20044;-74
2023/06/30 07:25:08;;;;;;;7.63;1.73;;;18.60;99.90;;;;;;5052559;28;20114;-74
2023/06/30 07:27:38;;;;;;;6.15;1.23;;;18.60;99.90;;;;;;5046771;28;20048;-75
2023/06/30 07:30:04;;;;;;;5.35;1.08;;;18.60;99.90;;;;;;5066203;28;20457;-75
2023/06/30 07:32:32;;;;;;;8.75;1.42;;;18.60;99.90;;;;;;5065554;28;20050;-74
2023/06/30 07:34:58;;;;;;;3.67;0.80;;;18.60;99.90;;;;;;5052861;28;20049;-74
2023/06/30 07:37:23;;;;;;;4.07;0.90;;;18.50;99.90;;;;;;5056376;28;20040;-74
2023/06/30 07:39:49;;;;;;;4.78;0.95;;;;;;;;;;5045622;28;20895;-74
2023/06/30 07:42:15;;;;;;;3.55;0.77;;;;;;;;;;5048772;28;20410;-74
2023/06/30 07:44:41;;;;;;;3.67;0.90;;;;;;;;;;5049079;28;20051;-74
2023/06/30 07:47:07;;;;;;;8.88;1.25;;;;;;;;;;5057916;28;20045;-74
2023/06/30 07:49:33;;;;;;;7.68;1.27;;;;;;;;;;5052658;28;20056;-74
2023/06/30 07:51:59;;;;;;;5.57;0.95;;;18.90;99.90;;;;;;5056255;28;20102;-74
2023/06/30 07:54:24;;;;;;;5.88;1.00;;;18.50;99.90;;;;;;5065805;28;20047;-74
2023/06/30 07:56:50;;;;;;;5.22;1.05;;;;;;;;;;5048494;28;20181;-74
2023/06/30 07:59:16;;;;;;;6.18;1.00;;;18.50;99.90;;;;;;5053193;28;20117;-74
2023/06/30 08:01:42;;;;;;;3.08;0.65;;;;;;;;;;5041498;28;20086;-74
2023/06/30 08:04:08;;;;;;;4.20;0.70;;;;;;;;;;5044581;28;20564;-74
2023/06/30 08:06:34;;;;;;;5.38;1.08;;;;;;;;;;5052473;28;20045;-74
2023/06/30 08:08:59;;;;;;;1.98;0.82;;;18.90;99.90;;;;;;5061582;28;20044;-74
2023/06/30 08:11:27;;;;;;;4.82;0.90;;;18.80;99.90;;;;;;5057079;28;20057;-74
2023/06/30 08:13:53;;;;;;;3.85;0.90;;;;;;;;;;5046830;28;20046;-74
2023/06/30 08:16:19;;;;;;;5.18;0.70;;;;;;;;;;5064871;28;20047;-72
2023/06/30 08:18:45;;;;;;;3.60;0.80;;;;;;;;;;5053735;28;20047;-71
2023/06/30 08:21:11;;;;;;;6.30;0.80;;;;;;;;;;5064703;28;20047;-72
2023/06/30 08:23:37;;;;;;;3.65;0.90;;;19.00;99.90;;;;;;5030484;28;20514;-72
2023/06/30 08:26:04;;;;;;;2.55;0.70;;;;;;;;;;5051106;28;20098;-72
2023/06/30 08:28:30;;;;;;;6.00;1.13;;;19.10;99.90;;;;;;5064455;28;20041;-72
2023/06/30 08:30:56;;;;;;;9.15;1.25;;;;;;;;;;5065832;28;20610;-72
2023/06/30 08:33:29;;;;;;;6.00;1.42;;;19.20;99.90;;;;;;5051937;28;20036;-72
2023/06/30 08:35:55;;;;;;;3.33;0.80;;;19.20;99.90;;;;;;5023359;28;20041;-72
2023/06/30 08:38:21;;;;;;;5.32;1.10;;;;;;;;;;5025287;28;20444;-71
2023/06/30 08:40:46;;;;;;;5.45;0.80;;;19.00;99.90;;;;;;5065215;28;20506;-71
2023/06/30 08:43:12;;;;;;;4.07;0.70;;;;;;;;;;5049704;28;20051;-72
2023/06/30 08:45:46;;;;;;;2.67;0.80;;;18.90;99.90;;;;;;5061812;28;20482;-72
2023/06/30 08:48:12;;;;;;;5.38;1.10;;;18.90;99.90;;;;;;5051706;28;20053;-70
2023/06/30 08:50:38;;;;;;;9.20;1.35;;;18.50;99.90;;;;;;5065899;28;20040;-70
2023/06/30 08:53:04;;;;;;;3.70;0.80;;;18.60;99.90;;;;;;5069981;28;20047;-70
2023/06/30 08:55:30;;;;;;;4.05;0.70;;;18.80;99.90;;;;;;5069851;28;20062;-70
2023/06/30 08:57:57;;;;;;;4.50;1.00;;;18.90;99.90;;;;;;5060012;28;20413;-70
2023/06/30 09:00:23;;;;;;;3.25;1.02;;;19.10;99.90;;;;;;5054777;28;20044;-71
2023/06/30 09:02:50;;;;;;;3.88;0.90;;;19.00;99.90;;;;;;5057814;28;20184;-70
2023/06/30 09:05:16;;;;;;;5.03;0.90;;;19.20;99.90;;;;;;5070261;28;20044;-71
2023/06/30 09:08:02;;;;;;;4.68;0.65;;;19.10;99.90;;;;;;5071496;28;20401;-71
2023/06/30 09:10:36;;;;;;;6.10;0.95;;;19.20;99.90;;;;;;5053254;28;20048;-69
2023/06/30 09:13:04;;;;;;;3.83;0.63;;;19.20;99.90;;;;;;5066452;28;20556;-71
2023/06/30 09:15:30;;;;;;;3.42;0.90;;;19.10;99.90;;;;;;5060870;28;20041;-70
2023/06/30 09:17:56;;;;;;;5.72;0.90;;;19.30;99.90;;;;;;5054181;28;20041;-71
2023/06/30 09:20:22;;;;;;;6.65;0.77;;;19.20;99.90;;;;;;5047105;28;20055;-71
2023/06/30 09:22:48;;;;;;;5.55;0.90;;;19.20;99.90;;;;;;5047110;28;20040;-71
2023/06/30 09:25:25;;;;;;;6.88;1.20;;;18.90;99.90;;;;;;5064128;28;20048;-71
2023/06/30 09:27:52;;;;;;;3.35;0.73;;;19.20;99.90;;;;;;5061274;28;20068;-69
2023/06/30 09:30:18;;;;;;;3.40;0.80;;;19.30;99.90;;;;;;5051139;28;20032;-69
2023/06/30 09:32:44;;;;;;;4.88;0.95;;;;;;;;;;5049863;28;20063;-70
2023/06/30 09:35:14;;;;;;;2.60;0.70;;;19.50;99.90;;;;;;5049276;28;20044;-69
2023/06/30 09:37:44;;;;;;;4.88;1.00;;;19.70;99.90;;;;;;5048171;28;20722;-72
2023/06/30 09:40:16;;;;;;;3.40;0.70;;;19.70;99.90;;;;;;5067635;28;20052;-70
2023/06/30 09:42:43;;;;;;;6.18;0.63;;;19.90;99.90;;;;;;5050722;28;20119;-69
2023/06/30 09:45:10;;;;;;;2.92;0.60;;;20.00;99.90;;;;;;5067740;28;20049;-69
2023/06/30 09:47:36;;;;;;;5.20;0.70;;;20.00;99.90;;;;;;5057383;28;20044;-70
2023/06/30 09:50:02;;;;;;;2.22;0.60;;;20.10;99.90;;;;;;5055704;28;20600;-69
2023/06/30 09:52:30;;;;;;;3.17;0.80;;;20.10;99.90;;;;;;5048906;28;20045;-69
2023/06/30 09:54:56;;;;;;;2.78;0.43;;;20.10;99.90;;;;;;5067487;28;20182;-74
2023/06/30 09:57:28;;;;;;;4.68;0.60;;;20.10;99.90;;;;;;5067381;28;20182;-69
2023/06/30 09:59:54;;;;;;;2.80;0.77;;;20.00;99.90;;;;;;5063272;28;20035;-70
2023/06/30 10:02:19;;;;;;;5.32;0.90;;;20.00;99.90;;;;;;5054225;28;20465;-75
2023/06/30 10:04:45;;;;;;;4.85;0.73;;;19.70;99.90;;;;;;5058688;28;20396;-73
2023/06/30 10:07:13;;;;;;;6.43;0.85;;;19.80;99.90;;;;;;5067157;28;20482;-72
2023/06/30 10:09:41;;;;;;;3.85;0.85;;;19.90;99.90;;;;;;5066600;28;20047;-73
2023/06/30 10:12:09;;;;;;;3.40;0.63;;;20.00;99.90;;;;;;5041623;28;20096;-73
2023/06/30 10:14:36;;;;;;;4.10;0.60;;;20.20;99.90;;;;;;5051407;28;20494;-72
2023/06/30 10:17:03;;;;;;;4.03;0.70;;;20.30;99.90;;;;;;5051019;28;20094;-73
2023/06/30 10:19:29;;;;;;;5.53;1.10;;;20.40;99.90;;;;;;5057743;28;20048;-72
2023/06/30 10:21:56;;;;;;;4.57;0.95;;;20.40;99.90;;;;;;5060610;28;20054;-72
2023/06/30 10:24:26;;;;;;;4.32;0.88;;;20.70;99.90;;;;;;5049154;28;20040;-72
2023/06/30 10:26:54;;;;;;;5.85;1.10;;;20.80;99.90;;;;;;5049752;28;20048;-72
2023/06/30 10:29:20;;;;;;;2.70;0.93;;;20.80;99.90;;;;;;5050246;28;20048;-71
2023/06/30 10:31:46;;;;;;;2.42;0.82;;;21.00;99.90;;;;;;5052805;28;20048;-71
2023/06/30 10:34:12;;;;;;;5.72;0.98;;;21.10;99.90;;;;;;5055026;28;20044;-74
2023/06/30 10:36:39;;;;;;;3.88;0.60;;;20.80;99.90;;;;;;5066516;28;20044;-74
2023/06/30 10:39:05;;;;;;;3.50;0.75;;;21.00;99.90;;;;;;5063785;28;20067;-71
2023/06/30 10:41:30;;;;;;;3.13;0.50;;;21.10;99.90;;;;;;5056982;28;20047;-71
2023/06/30 10:44:07;;;;;;;2.75;0.80;;;20.70;99.90;;;;;;5048228;28;20498;-71
2023/06/30 10:46:53;;;;;;;5.68;1.00;;;20.90;99.90;;;;;;5066572;28;20053;-71
2023/06/30 10:49:42;;;;;;;3.05;0.80;;;20.90;99.90;;;;;;5066006;28;20040;-71
2023/06/30 10:52:23;;;;;;;3.10;0.70;;;21.00;99.90;;;;;;5066063;28;20048;-71
2023/06/30 10:54:49;;;;;;;7.47;1.08;;;21.20;99.90;;;;;;5051149;28;20054;-72
2023/06/30 10:57:19;;;;;;;3.38;0.70;;;21.20;99.90;;;;;;5050389;28;20075;-71
2023/06/30 10:59:47;;;;;;;5.05;0.80;;;21.00;99.90;;;;;;5065793;28;20483;-71
2023/06/30 11:02:19;;;;;;;6.38;1.17;;;21.40;99.90;;;;;;5053016;28;20109;-72
2023/06/30 11:04:46;;;;;;;2.90;0.75;;;21.20;99.90;;;;;;5060970;28;20080;-71
2023/06/30 11:07:38;;;;;;;3.15;0.90;;;21.50;99.90;;;;;;5047582;28;20120;-71
2023/06/30 11:10:03;;;;;;;4.85;1.23;;;21.30;99.90;;;;;;5038378;28;20059;-71
2023/06/30 11:12:50;;;;;;;2.90;0.98;;;21.50;99.90;;;;;;5043079;28;20041;-71
2023/06/30 11:15:28;;;;;;;4.93;0.93;;;21.30;99.90;;;;;;5029202;28;20032;-71
2023/06/30 11:17:54;;;;;;;5.35;1.02;;;21.50;99.90;;;;;;5040819;28;20408;-71
2023/06/30 11:20:26;;;;;;;4.38;0.82;;;21.40;99.90;;;;;;5039644;28;20047;-71
2023/06/30 11:23:00;;;;;;;4.70;1.20;;;21.30;99.90;;;;;;5045857;28;20336;-72
2023/06/30 11:25:27;;;;;;;7.15;1.40;;;21.40;99.90;;;;;;5043526;28;20133;-71
2023/06/30 11:27:54;;;;;;;6.00;1.05;;;21.30;99.90;;;;;;5042581;28;20474;-72
2023/06/30 11:30:21;;;;;;;3.67;0.95;;;21.20;99.90;;;;;;5041109;28;20052;-72
2023/06/30 11:32:47;;;;;;;6.07;0.90;;;21.40;99.90;;;;;;5043841;28;20050;-72
2023/06/30 11:35:16;;;;;;;9.40;0.93;;;22.20;99.90;;;;;;5045794;28;20032;-72
2023/06/30 11:37:47;;;;;;;4.63;0.80;;;21.60;99.90;;;;;;5041761;28;20050;-71
2023/06/30 11:40:13;;;;;;;4.72;0.70;;;21.50;99.90;;;;;;5045508;28;20059;-71
2023/06/30 11:42:39;;;;;;;5.22;1.00;;;21.50;99.90;;;;;;5017441;28;20060;-72
2023/06/30 11:45:06;;;;;;;6.88;1.00;;;21.80;99.90;;;;;;5038889;28;20049;-71
2023/06/30 11:47:33;;;;;;;3.80;0.75;;;21.70;99.90;;;;;;5042683;28;20045;-71
2023/06/30 11:50:04;;;;;;;2.97;0.60;;;21.70;99.90;;;;;;5045873;28;20048;-72
2023/06/30 11:52:35;;;;;;;3.13;0.80;;;21.70;99.90;;;;;;5044384;28;20045;-72
2023/06/30 11:55:08;;;;;;;5.18;0.77;;;23.30;99.90;;;;;;5030269;28;20054;-72
2023/06/30 11:57:39;;;;;;;3.38;0.95;;;21.70;99.90;;;;;;5041763;28;20524;-71
2023/06/30 12:00:12;;;;;;;5.68;0.80;;;21.80;99.90;;;;;;5040143;28;20502;-71
2023/06/30 12:02:45;;;;;;;4.10;1.10;;;21.80;99.90;;;;;;5042577;28;20063;-71
2023/06/30 12:05:25;;;;;;;3.88;0.90;;;22.00;99.90;;;;;;5045206;28;20555;-71
2023/06/30 12:07:55;;;;;;;2.85;0.70;;;21.60;99.90;;;;;;5042479;28;20045;-72
2023/06/30 12:10:22;;;;;;;4.72;0.90;;;21.90;99.90;;;;;;5039684;28;20029;-72
2023/06/30 12:12:57;;;;;;;3.97;0.90;;;21.90;99.90;;;;;;5042926;28;20181;-71
2023/06/30 12:15:24;;;;;;;3.38;0.90;;;21.70;99.90;;;;;;5044116;28;20051;-72
2023/06/30 12:17:54;;;;;;;1.52;0.60;;;21.80;99.90;;;;;;5040258;28;20052;-72
2023/06/30 12:20:35;;;;;;;5.03;0.70;;;21.80;99.90;;;;;;5043185;28;20068;-71
2023/06/30 12:23:02;;;;;;;3.10;0.82;;;21.70;99.90;;;;;;5042348;28;20073;-71
2023/06/30 12:25:33;;;;;;;7.20;1.00;;;22.20;99.90;;;;;;5044072;28;20564;-71
2023/06/30 12:28:05;;;;;;;8.60;1.00;;;22.10;99.90;;;;;;5047623;28;20120;-71
2023/06/30 12:30:31;;;;;;;6.65;0.80;;;21.90;99.90;;;;;;5044213;28;20037;-71
2023/06/30 12:32:58;;;;;;;3.85;0.63;;;24.00;99.90;;;;;;5043401;28;20037;-71
2023/06/30 12:35:39;;;;;;;3.25;1.00;;;21.70;99.90;;;;;;5046128;28;20461;-71
2023/06/30 12:38:07;;;;;;;3.40;0.90;;;21.70;99.90;;;;;;5047103;28;20402;-71
2023/06/30 12:40:33;;;;;;;3.30;1.00;;;21.70;99.90;;;;;;5041178;28;20158;-71
2023/06/30 12:42:59;;;;;;;5.00;0.77;;;21.90;99.90;;;;;;5037166;28;20602;-72
2023/06/30 12:45:25;;;;;;;4.72;0.75;;;21.70;99.90;;;;;;5048944;28;20048;-71
2023/06/30 12:47:50;;;;;;;6.38;1.30;;;22.80;99.90;;;;;;5043599;28;21286;-71
2023/06/30 12:50:16;;;;;;;4.40;0.82;;;21.70;99.90;;;;;;5041105;28;20380;-71
2023/06/30 12:52:42;;;;;;;2.45;0.75;;;22.20;99.90;;;;;;5042836;28;20047;-72
2023/06/30 12:55:09;;;;;;;5.93;1.17;;;22.20;99.90;;;;;;5046749;28;20076;-72
2023/06/30 12:57:34;;;;;;;3.55;0.75;;;22.30;99.90;;;;;;5045334;28;20052;-72
2023/06/30 13:00:01;;;;;;;4.72;1.08;;;22.50;99.90;;;;;;5043274;28;20045;-72
2023/06/30 13:02:27;;;;;;;4.15;0.52;;;22.20;99.90;;;;;;5043147;28;20156;-71
2023/06/30 13:04:52;;;;;;;4.80;1.00;;;22.30;99.90;;;;;;5048512;28;20410;-71
2023/06/30 13:07:18;;;;;;;1.88;0.70;;;22.30;99.90;;;;;;5045921;28;20056;-72
2023/06/30 13:09:47;;;;;;;2.22;0.80;;;22.30;99.90;;;;;;5043379;28;20033;-71
2023/06/30 13:12:15;;;;;;;4.10;0.70;;;22.30;99.90;;;;;;5059411;28;20061;-71
2023/06/30 13:14:41;;;;;;;4.65;0.90;;;22.10;99.90;;;;;;5046869;28;20041;-72
2023/06/30 13:17:06;;;;;;;3.35;0.93;;;23.70;99.90;;;;;;5048125;28;20049;-71
2023/06/30 13:19:32;;;;;;;3.83;1.02;;;22.20;99.90;;;;;;5048026;28;20044;-71
2023/06/30 13:21:58;;;;;;;3.88;0.90;;;22.20;99.90;;;;;;5046702;28;20045;-71
2023/06/30 13:24:24;;;;;;;6.25;0.88;;;22.40;99.90;;;;;;5058993;28;20044;-71
2023/06/30 13:26:49;;;;;;;4.22;1.00;;;22.20;99.90;;;;;;5047412;28;20052;-71